createdAt,value
2022-09-03T00:00:37.818Z,15.10
2022-09-03T00:03:14.012Z,15.10
2022-09-03T00:05:51.395Z,15.10
2022-09-03T00:08:31.731Z,15.10
2022-09-03T00:11:07.197Z,15.00
2022-09-03T00:13:40.555Z,15.00
2022-09-03T00:16:12.769Z,15.00
2022-09-03T00:18:47.355Z,14.90
2022-09-03T00:21:23.396Z,15.00
2022-09-03T00:23:52.940Z,15.00
2022-09-03T00:26:29.025Z,15.00
2022-09-03T00:31:44.653Z,15.30
2022-09-03T00:34:24.840Z,15.40
2022-09-03T00:36:56.314Z,15.40
2022-09-03T00:39:31.194Z,15.30
2022-09-03T00:42:36.338Z,15.40
2022-09-03T00:45:29.419Z,15.40
2022-09-03T00:48:11.490Z,15.30
2022-09-03T00:50:53.380Z,15.30
2022-09-03T00:53:36.052Z,15.20
2022-09-03T00:56:16.308Z,15.20
2022-09-03T00:59:04.104Z,15.20
2022-09-03T01:01:42.829Z,15.20
2022-09-03T01:04:33.428Z,15.20
2022-09-03T01:07:14.453Z,15.20
2022-09-03T01:09:54.893Z,15.40
2022-09-03T01:12:44.439Z,15.20
2022-09-03T01:15:24.704Z,15.30
2022-09-03T01:18:17.517Z,15.30
2022-09-03T01:21:00.710Z,15.20
2022-09-03T01:24:14.452Z,15.20
2022-09-03T01:27:05.927Z,15.10
2022-09-03T01:29:41.538Z,15.20
2022-09-03T01:32:16.981Z,15.30
2022-09-03T01:34:54.792Z,15.10
2022-09-03T01:37:34.286Z,15.00
2022-09-03T01:40:11.796Z,15.00
2022-09-03T01:42:51.063Z,15.20
2022-09-03T01:45:40.533Z,15.20
2022-09-03T01:48:42.902Z,15.10
2022-09-03T01:54:50.509Z,15.10
2022-09-03T01:57:54.290Z,15.00
2022-09-03T02:00:38.876Z,15.10
2022-09-03T02:03:17.600Z,15.10
2022-09-03T02:05:57.867Z,15.10
2022-09-03T02:08:38.155Z,15.10
2022-09-03T02:11:17.699Z,14.90
2022-09-03T02:14:01.800Z,14.80
2022-09-03T02:16:35.439Z,14.70
2022-09-03T02:19:12.476Z,14.70
2022-09-03T02:21:48.943Z,14.60
2022-09-03T02:24:29.753Z,14.50
2022-09-03T02:27:02.632Z,14.40
2022-09-03T02:29:35.182Z,14.30
2022-09-03T02:32:04.811Z,14.30
2022-09-03T02:34:35.637Z,14.20
2022-09-03T02:37:17.159Z,14.10
2022-09-03T02:39:46.284Z,14.10
2022-09-03T02:42:16.270Z,14.00
2022-09-03T02:44:50.154Z,14.00
2022-09-03T02:47:20.960Z,13.90
2022-09-03T02:49:51.746Z,13.70
2022-09-03T02:52:20.318Z,13.70
2022-09-03T02:54:48.915Z,13.50
2022-09-03T02:57:27.341Z,13.50
2022-09-03T02:59:57.006Z,13.50
2022-09-03T03:02:25.934Z,13.40
2022-09-03T03:04:56.616Z,13.40
2022-09-03T03:07:26.650Z,13.50
2022-09-03T03:09:58.276Z,13.50
2022-09-03T03:12:27.099Z,13.40
2022-09-03T03:14:55.709Z,13.30
2022-09-03T03:17:24.564Z,13.20
2022-09-03T03:19:53.251Z,13.20
2022-09-03T03:22:23.739Z,13.20
2022-09-03T03:24:53.146Z,13.20
2022-09-03T03:27:21.877Z,13.20
2022-09-03T03:29:50.620Z,13.10
2022-09-03T03:32:19.423Z,13.00
2022-09-03T03:34:48.641Z,13.00
2022-09-03T03:37:17.793Z,12.90
2022-09-03T03:39:51.847Z,12.80
2022-09-03T03:42:21.311Z,12.80
2022-09-03T03:44:53.877Z,12.80
2022-09-03T03:47:24.453Z,12.80
2022-09-03T03:49:53.518Z,12.90
2022-09-03T03:52:28.777Z,12.90
2022-09-03T03:54:59.366Z,12.90
2022-09-03T03:57:31.423Z,12.80
2022-09-03T04:00:00.397Z,12.80
2022-09-03T04:02:34.161Z,12.80
2022-09-03T04:05:05.127Z,12.80
2022-09-03T04:07:36.277Z,12.70
2022-09-03T04:10:07.329Z,12.60
2022-09-03T04:12:36.245Z,12.60
2022-09-03T04:15:05.386Z,12.80
2022-09-03T04:17:36.277Z,12.60
2022-09-03T04:20:08.125Z,12.60
2022-09-03T04:22:39.577Z,12.50
2022-09-03T04:25:11.783Z,12.50
2022-09-03T04:27:44.485Z,12.50
2022-09-03T04:30:16.418Z,12.50
2022-09-03T04:32:57.606Z,12.50
2022-09-03T04:35:37.575Z,12.50
2022-09-03T04:38:08.195Z,12.50
2022-09-03T04:40:39.000Z,12.50
2022-09-03T04:43:08.140Z,12.50
2022-09-03T04:45:37.171Z,12.40
2022-09-03T04:48:10.732Z,12.30
2022-09-03T04:50:41.663Z,12.30
2022-09-03T04:53:10.810Z,12.30
2022-09-03T04:55:41.442Z,12.30
2022-09-03T04:58:10.638Z,12.30
2022-09-03T05:00:42.453Z,12.20
2022-09-03T05:03:11.056Z,12.10
2022-09-03T05:05:39.745Z,12.10
2022-09-03T05:08:08.876Z,12.10
2022-09-03T05:10:37.635Z,12.10
2022-09-03T05:13:14.718Z,12.10
2022-09-03T05:15:48.823Z,12.20
2022-09-03T05:18:18.719Z,12.20
2022-09-03T05:20:59.618Z,12.20
2022-09-03T05:23:36.942Z,12.40
2022-09-03T05:26:13.165Z,12.50
2022-09-03T05:28:45.246Z,12.50
2022-09-03T05:31:15.737Z,12.50
2022-09-03T05:33:46.366Z,12.50
2022-09-03T05:36:18.401Z,12.60
2022-09-03T05:38:49.079Z,12.90
2022-09-03T05:41:19.491Z,13.00
2022-09-03T05:43:53.622Z,13.10
2022-09-03T05:46:26.501Z,13.40
2022-09-03T05:48:55.215Z,13.20
2022-09-03T05:51:23.988Z,13.20
2022-09-03T05:53:53.700Z,13.20
2022-09-03T05:56:24.102Z,13.30
2022-09-03T05:58:55.862Z,13.30
2022-09-03T06:01:26.906Z,13.40
2022-09-03T06:03:57.930Z,13.50
2022-09-03T06:06:27.660Z,13.60
2022-09-03T06:08:58.338Z,13.70
2022-09-03T06:11:30.945Z,14.00
2022-09-03T06:14:05.165Z,14.10
2022-09-03T06:16:35.921Z,14.30
2022-09-03T06:19:06.433Z,14.50
2022-09-03T06:21:36.266Z,14.70
2022-09-03T06:24:05.973Z,15.00
2022-09-03T06:26:38.530Z,15.30
2022-09-03T06:29:08.617Z,15.60
2022-09-03T06:31:37.582Z,15.90
2022-09-03T06:34:06.472Z,16.10
2022-09-03T06:36:35.335Z,16.40
2022-09-03T06:39:04.995Z,16.50
2022-09-03T06:41:35.733Z,16.60
2022-09-03T06:44:06.462Z,16.70
2022-09-03T06:46:39.134Z,16.80
2022-09-03T06:49:08.842Z,16.90
2022-09-03T06:51:43.853Z,16.90
2022-09-03T06:54:14.889Z,17.10
2022-09-03T06:56:44.594Z,17.20
2022-09-03T06:59:15.263Z,17.40
2022-09-03T07:01:46.824Z,17.50
2022-09-03T07:04:19.313Z,17.80
2022-09-03T07:06:49.299Z,17.80
2022-09-03T07:09:19.350Z,18.00
2022-09-03T07:11:50.020Z,18.30
2022-09-03T07:14:21.728Z,18.30
2022-09-03T07:16:57.410Z,18.40
2022-09-03T07:19:33.296Z,18.70
2022-09-03T07:22:02.564Z,18.90
2022-09-03T07:24:40.225Z,19.10
2022-09-03T07:27:14.366Z,19.50
2022-09-03T07:29:45.239Z,19.80
2022-09-03T07:32:16.085Z,20.00
2022-09-03T07:34:45.439Z,20.20
2022-09-03T07:37:16.550Z,20.40
2022-09-03T07:39:46.936Z,20.50
2022-09-03T07:42:16.421Z,20.60
2022-09-03T07:44:46.247Z,20.80
2022-09-03T07:47:26.924Z,20.80
2022-09-03T07:49:56.938Z,20.90
2022-09-03T07:52:30.614Z,21.10
2022-09-03T07:55:03.555Z,21.20
2022-09-03T07:57:33.587Z,21.20
2022-09-03T08:00:09.211Z,21.40
2022-09-03T08:02:47.748Z,21.40
2022-09-03T08:05:20.477Z,21.50
2022-09-03T08:07:50.904Z,21.50
2022-09-03T08:10:28.106Z,21.60
2022-09-03T08:13:01.641Z,21.60
2022-09-03T08:15:34.677Z,21.70
2022-09-03T08:18:07.711Z,21.90
2022-09-03T08:20:38.648Z,21.90
2022-09-03T08:23:11.729Z,22.00
2022-09-03T08:25:50.536Z,22.10
2022-09-03T08:28:31.793Z,22.20
2022-09-03T08:31:17.077Z,22.40
2022-09-03T08:34:28.632Z,22.50
2022-09-03T08:37:06.672Z,22.60
2022-09-03T08:39:40.236Z,22.70
2022-09-03T08:42:32.654Z,22.70
2022-09-03T08:45:15.431Z,22.80
2022-09-03T08:47:52.482Z,22.70
2022-09-03T08:50:32.268Z,22.90
2022-09-03T08:53:17.443Z,22.90
2022-09-03T08:56:09.594Z,23.00
2022-09-03T08:58:52.381Z,22.90
2022-09-03T09:01:38.951Z,22.90
2022-09-03T09:04:35.385Z,22.90
2022-09-03T09:13:53.807Z,23.00
2022-09-03T09:16:31.316Z,23.30
2022-09-03T09:19:15.766Z,23.40
2022-09-03T09:22:14.282Z,23.60
2022-09-03T09:24:53.547Z,23.60
2022-09-03T09:27:43.381Z,23.70
2022-09-03T09:30:19.023Z,23.90
2022-09-03T09:32:57.987Z,24.10
2022-09-03T09:35:30.317Z,24.10
2022-09-03T09:38:08.698Z,24.10
2022-09-03T09:40:45.026Z,24.00
2022-09-03T09:43:19.578Z,24.10
2022-09-03T09:46:00.705Z,24.20
2022-09-03T09:48:37.384Z,24.30
2022-09-03T09:51:07.919Z,24.70
2022-09-03T09:53:43.740Z,25.00
2022-09-03T09:56:27.718Z,25.10
2022-09-03T09:59:08.111Z,25.50
2022-09-03T10:01:40.335Z,25.90
2022-09-03T10:04:15.117Z,26.50
2022-09-03T10:06:58.586Z,27.20
2022-09-03T10:09:31.561Z,27.90
2022-09-03T10:12:24.874Z,28.30
2022-09-03T10:15:08.059Z,28.70
2022-09-03T10:17:51.441Z,28.60
2022-09-03T10:20:31.376Z,28.90
2022-09-03T10:23:06.974Z,29.00
2022-09-03T10:25:50.417Z,28.80
2022-09-03T10:28:25.033Z,29.10
2022-09-03T10:31:14.134Z,29.30
2022-09-03T10:33:49.710Z,29.70
2022-09-03T10:36:23.884Z,30.00
2022-09-03T10:39:02.092Z,30.20
2022-09-03T10:41:43.550Z,30.10
2022-09-03T10:44:36.003Z,30.30
2022-09-03T10:47:36.213Z,29.80
2022-09-03T10:50:18.824Z,30.10
2022-09-03T10:53:19.909Z,30.30
2022-09-03T10:55:59.920Z,30.30
2022-09-03T10:58:53.520Z,29.60
2022-09-03T11:01:36.400Z,29.00
2022-09-03T11:04:22.534Z,28.40
2022-09-03T11:07:16.505Z,28.10
2022-09-03T11:09:51.084Z,28.70
2022-09-03T11:12:26.997Z,29.20
2022-09-03T11:15:04.065Z,29.80
2022-09-03T11:17:42.632Z,30.80
2022-09-03T11:20:18.848Z,31.10
2022-09-03T11:22:49.492Z,31.10
2022-09-03T11:25:24.355Z,30.90
2022-09-03T11:28:09.264Z,30.20
2022-09-03T11:30:50.191Z,29.60
2022-09-03T11:33:25.066Z,29.70
2022-09-03T11:36:01.093Z,30.30
2022-09-03T11:38:32.919Z,31.00
2022-09-03T11:41:05.513Z,30.80
2022-09-03T11:43:35.715Z,31.30
2022-09-03T11:46:11.987Z,31.70
2022-09-03T11:48:45.159Z,32.20
2022-09-03T11:51:35.920Z,31.90
2022-09-03T11:54:06.564Z,31.90
2022-09-03T11:56:37.116Z,32.20
2022-09-03T11:59:18.644Z,32.10
2022-09-03T12:01:55.752Z,32.30
2022-09-03T12:04:33.082Z,32.00
2022-09-03T12:07:36.301Z,32.80
2022-09-03T12:10:20.762Z,33.10
2022-09-03T12:13:00.199Z,33.50
2022-09-03T12:15:52.229Z,32.60
2022-09-03T12:18:27.154Z,32.80
2022-09-03T12:21:06.603Z,33.30
2022-09-03T12:23:42.508Z,33.70
2022-09-03T12:26:15.705Z,33.80
2022-09-03T12:28:47.107Z,33.80
2022-09-03T12:31:25.827Z,33.30
2022-09-03T12:33:56.613Z,33.70
2022-09-03T12:36:40.311Z,34.40
2022-09-03T12:39:13.305Z,34.30
2022-09-03T12:41:58.415Z,33.80
2022-09-03T12:44:31.634Z,33.10
2022-09-03T12:49:59.185Z,33.50
2022-09-03T12:52:32.544Z,32.80
2022-09-03T12:55:18.292Z,31.80
2022-09-03T12:57:50.951Z,31.40
2022-09-03T13:00:23.761Z,31.00
2022-09-03T13:03:02.168Z,30.00
2022-09-03T13:05:37.364Z,29.50
2022-09-03T13:08:16.137Z,29.60
2022-09-03T13:10:46.176Z,29.90
2022-09-03T13:13:24.413Z,31.00
2022-09-03T13:16:12.591Z,32.40
2022-09-03T13:18:47.416Z,32.70
2022-09-03T13:21:23.549Z,32.40
2022-09-03T13:24:18.331Z,31.90
2022-09-03T13:26:59.690Z,31.60
2022-09-03T13:29:53.891Z,31.30
2022-09-03T13:32:37.330Z,31.10
2022-09-03T13:35:12.056Z,30.70
2022-09-03T13:37:45.412Z,30.90
2022-09-03T13:40:22.616Z,30.70
2022-09-03T13:42:56.327Z,31.10
2022-09-03T13:45:39.807Z,31.60
2022-09-03T13:48:32.368Z,32.30
2022-09-03T13:51:09.140Z,32.80
2022-09-03T13:53:48.232Z,32.90
2022-09-03T13:56:26.178Z,32.90
2022-09-03T13:59:03.291Z,33.30
2022-09-03T14:01:48.742Z,33.10
2022-09-03T14:04:31.470Z,33.10
2022-09-03T14:07:04.446Z,33.80
2022-09-03T14:09:41.063Z,35.00
2022-09-03T14:12:20.001Z,35.80
2022-09-03T14:15:00.254Z,35.70
2022-09-03T14:17:42.178Z,36.60
2022-09-03T14:20:20.224Z,37.40
2022-09-03T14:23:05.391Z,37.90
2022-09-03T14:25:34.814Z,37.20
2022-09-03T14:28:31.111Z,35.80
2022-09-03T14:31:09.435Z,37.00
2022-09-03T14:33:46.815Z,37.80
2022-09-03T14:36:23.649Z,38.40
2022-09-03T14:39:20.536Z,38.30
2022-09-03T14:42:31.875Z,37.80
2022-09-03T14:45:47.910Z,38.30
2022-09-03T14:49:01.018Z,38.50
2022-09-03T14:51:38.505Z,38.90
2022-09-03T14:54:30.225Z,36.90
2022-09-03T14:57:26.451Z,35.10
2022-09-03T15:05:16.176Z,32.80
2022-09-03T15:08:25.388Z,31.60
2022-09-03T15:11:40.571Z,31.10
2022-09-03T15:19:14.907Z,33.30
2022-09-03T15:22:15.588Z,32.80
2022-09-03T15:33:19.859Z,31.40
2022-09-03T15:36:13.119Z,31.40
2022-09-03T15:38:52.296Z,30.70
2022-09-03T15:41:39.412Z,30.20
2022-09-03T15:44:18.964Z,29.80
2022-09-03T15:46:57.046Z,29.80
2022-09-03T15:49:45.808Z,29.80
2022-09-03T15:52:30.626Z,29.40
2022-09-03T15:55:08.614Z,28.90
2022-09-03T15:57:45.801Z,29.60
2022-09-03T16:00:23.892Z,30.80
2022-09-03T16:03:01.575Z,32.80
2022-09-03T16:05:50.061Z,34.40
2022-09-03T16:08:25.285Z,35.50
2022-09-03T16:11:06.688Z,36.80
2022-09-03T16:13:58.769Z,37.60
2022-09-03T16:16:33.079Z,37.50
2022-09-03T16:19:12.837Z,37.50
2022-09-03T16:21:50.433Z,37.20
2022-09-03T16:24:24.203Z,36.10
2022-09-03T16:27:00.694Z,35.70
2022-09-03T16:29:32.405Z,35.40
2022-09-03T16:32:14.081Z,35.90
2022-09-03T16:34:53.561Z,36.10
2022-09-03T16:58:08.285Z,34.70
2022-09-03T17:00:51.826Z,33.40
2022-09-03T17:03:43.537Z,33.10
2022-09-03T17:06:41.687Z,33.00
2022-09-03T17:09:24.014Z,33.40
2022-09-03T17:12:05.923Z,33.50
2022-09-03T17:15:10.871Z,33.20
2022-09-03T17:18:03.202Z,32.70
2022-09-03T17:20:49.031Z,31.90
2022-09-03T17:23:48.158Z,30.60
2022-09-03T17:26:27.742Z,28.80
2022-09-03T17:29:15.002Z,28.20
2022-09-03T17:31:54.861Z,27.60
2022-09-03T17:34:38.827Z,27.10
2022-09-03T17:37:19.187Z,26.60
2022-09-03T17:40:10.130Z,26.10
2022-09-03T17:42:51.389Z,25.80
2022-09-03T17:45:38.597Z,25.40
2022-09-03T17:48:23.417Z,25.10
2022-09-03T17:50:59.085Z,25.00
2022-09-03T17:53:39.420Z,24.90
2022-09-03T17:56:14.001Z,24.60
2022-09-03T17:58:51.382Z,24.50
2022-09-03T18:01:26.772Z,24.40
2022-09-03T18:04:05.148Z,24.20
2022-09-03T18:06:39.485Z,24.00
2022-09-03T18:09:15.041Z,23.80
2022-09-03T18:11:51.246Z,23.70
2022-09-03T18:14:33.519Z,23.60
2022-09-03T18:17:09.213Z,23.40
2022-09-03T18:20:02.857Z,23.30
2022-09-03T18:22:56.953Z,23.20
2022-09-03T18:25:46.285Z,23.10
2022-09-03T18:28:38.573Z,23.00
2022-09-03T18:31:31.152Z,22.90
2022-09-03T18:34:17.765Z,22.90
2022-09-03T18:37:06.115Z,22.80
2022-09-03T18:39:53.013Z,22.80
2022-09-03T18:42:48.131Z,22.80
2022-09-03T18:46:22.623Z,22.80
2022-09-03T18:49:11.933Z,22.80
2022-09-03T18:52:11.629Z,22.80
2022-09-03T18:55:13.788Z,22.80
2022-09-03T18:58:14.421Z,22.80
2022-09-03T19:01:09.706Z,22.70
2022-09-03T19:04:09.482Z,22.70
2022-09-03T19:07:06.129Z,22.60
2022-09-03T19:10:04.742Z,22.50
2022-09-03T19:13:05.063Z,22.40
2022-09-03T19:16:00.659Z,22.30
2022-09-03T19:19:08.014Z,22.20
2022-09-03T19:22:02.194Z,22.10
2022-09-03T19:24:52.245Z,22.00
2022-09-03T19:27:58.918Z,21.90
2022-09-03T19:30:53.791Z,21.80
2022-09-03T19:33:51.382Z,21.70
2022-09-03T19:36:48.446Z,21.50
2022-09-03T19:39:51.864Z,21.50
2022-09-03T19:42:49.130Z,21.30
2022-09-03T19:45:47.221Z,21.20
2022-09-03T19:48:55.999Z,21.10
2022-09-03T19:51:52.653Z,21.00
2022-09-03T19:54:43.071Z,21.00
2022-09-03T19:57:33.239Z,20.90
2022-09-03T20:00:32.542Z,20.70
2022-09-03T20:03:21.635Z,20.70
2022-09-03T20:06:11.206Z,20.60
2022-09-03T20:08:58.843Z,20.50
2022-09-03T20:11:33.388Z,20.40
2022-09-03T20:14:21.026Z,20.30
2022-09-03T20:17:14.658Z,20.10
2022-09-03T20:19:56.226Z,20.00
2022-09-03T20:22:33.611Z,19.90
2022-09-03T20:25:19.234Z,19.80
2022-09-03T20:27:58.886Z,19.70
2022-09-03T20:30:35.878Z,19.60
2022-09-03T20:33:22.878Z,19.60
2022-09-03T20:36:05.234Z,19.50
2022-09-03T20:39:12.179Z,19.50
2022-09-03T20:41:50.479Z,19.50
2022-09-03T20:44:35.767Z,19.40
2022-09-03T20:47:21.737Z,19.20
2022-09-03T20:50:00.044Z,19.10
2022-09-03T20:52:39.354Z,19.10
2022-09-03T20:55:15.444Z,18.90
2022-09-03T20:57:55.765Z,18.90
2022-09-03T21:00:25.050Z,18.90
2022-09-03T21:03:18.368Z,18.80
2022-09-03T21:06:16.402Z,18.80
2022-09-03T21:09:02.945Z,18.70
2022-09-03T21:11:39.901Z,18.60
2022-09-03T21:14:19.620Z,18.70
2022-09-03T21:17:02.773Z,18.60
2022-09-03T21:19:48.910Z,18.60
2022-09-03T21:22:34.635Z,18.50
2022-09-03T21:25:08.061Z,18.50
2022-09-03T21:27:41.556Z,18.50
2022-09-03T21:30:14.825Z,18.40
2022-09-03T21:32:51.707Z,18.40
2022-09-03T21:35:30.305Z,18.40
2022-09-03T21:38:07.489Z,18.30
2022-09-03T21:40:41.282Z,18.20
2022-09-03T21:43:18.145Z,18.20
2022-09-03T21:45:55.429Z,18.10
2022-09-03T21:48:29.320Z,18.20
2022-09-03T21:51:02.441Z,18.20
2022-09-03T21:53:44.697Z,18.10
2022-09-03T21:56:30.935Z,18.00
2022-09-03T21:59:09.413Z,18.10
2022-09-03T22:01:55.102Z,18.10
2022-09-03T22:04:24.902Z,18.10
2022-09-03T22:07:08.654Z,18.00
2022-09-03T22:09:46.453Z,18.00
2022-09-03T22:12:22.167Z,18.00
2022-09-03T22:14:55.831Z,17.80
2022-09-03T22:17:33.071Z,17.70
2022-09-03T22:20:02.550Z,17.70
2022-09-03T22:22:40.933Z,17.60
2022-09-03T22:25:15.401Z,17.50
2022-09-03T22:27:49.735Z,17.50
2022-09-03T22:30:23.526Z,17.40
2022-09-03T22:33:02.853Z,17.40
2022-09-03T22:36:07.854Z,17.30
2022-09-03T23:45:50.156Z,15.90
2022-09-03T23:48:35.121Z,15.80
2022-09-03T23:51:53.032Z,15.70
2022-09-03T23:55:05.982Z,15.70
2022-09-03T23:58:18.609Z,15.70
